METAR Data
IDs: Format: Raw Decoded Include TAF

Data at: 1335 UTC 14 Dec 2019

PAMC 141253Z AUTO 00000KT 10SM CLR M22/M23 A2959 RMK AO2 SLP034 T12171233 TSNO $
PAMC 141153Z AUTO 00000KT 10SM CLR M20/M22 A2960 RMK AO2 SLP037 I1000 I6000 T12001222 11172 21217 58002 TSNO $
PAMC 141053Z AUTO 28003KT 10SM CLR M20/M22 A2961 RMK AO2 SLP039 I1000 T12001217 TSNO $
PAMC 140953Z AUTO 00000KT 10SM CLR M21/M23 A2961 RMK AO2 SLP040 T12111228 TSNO $
PAMC 140853Z AUTO 00000KT 10SM CLR M20/M22 A2961 RMK AO2 SLP038 T12001222 411061200 55003 TSNO $
PAMC 140753Z AUTO 00000KT 10SM CLR M19/M21 A2960 RMK AO2 SLP037 T11941211 TSNO $
PAMC 140653Z AUTO 00000KT 10SM CLR M19/M21 A2961 RMK AO2 SLP039 T11891211 TSNO $
PAMC 140553Z AUTO 27003KT 10SM CLR M18/M19 A2962 RMK AO2 SLP041 I6000 T11781194 11139 21178 51013 TSNO $
PAMC 140453Z AUTO 00000KT 10SM BKN100 M16/M17 A2961 RMK AO2 SLP039 T11561172 TSNO $
PAMC 140353Z AUTO 00000KT 10SM CLR M16/M17 A2960 RMK AO2 SLP033 I1000 T11561172 TSNO $
PAMC 140253Z AUTO 00000KT 10SM BKN090 BKN110 M15/M17 A2958 RMK AO2 SLP027 T11501167 51013 TSNO $
PAMC 140153Z AUTO 00000KT 10SM OVC080 M14/M16 A2957 RMK AO2 SLP024 T11391156 TSNO $
PAMC 140053Z AUTO 00000KT 10SM OVC070 M15/M16 A2956 RMK AO2 SLP021 T11501161 TSNO $
PAMC 132353Z AUTO 00000KT 10SM FEW080 M17/M18 A2954 RMK AO2 SLP013 I6000 T11671183 11156 21183 51018 TSNO $
PAMC 132253Z AUTO 00000KT 10SM OVC090 M16/M17 A2953 RMK AO2 SLP011 T11611172 TSNO $
PAMC 132153Z AUTO 00000KT 10SM CLR M18/M20 A2951 RMK AO2 SLP003 T11831200 TSNO $
PAMC 132053Z AUTO 00000KT 10SM CLR M18/M21 A2949 RMK AO2 SLP996 I3000 T11831206 51028 TSNO $
PAMC 131953Z AUTO 00000KT 10SM CLR M17/M19 A2946 RMK AO2 SLP988 I1000 T11721189 TSNO $
PAMC 131853Z AUTO 00000KT 10SM CLR M17/M18 A2943 RMK AO2 SLP979 T11671178 TSNO $
PAMC 131753Z AUTO 00000KT 9SM FEW110 M16/M18 A2940 RMK AO2 SLP968 T11561178 11106 21161 53021 TSNO $
PAMC 131553Z AUTO 00000KT 10SM CLR M14/M16 A2936 RMK AO2 SLP951 T11391156 TSNO $
PAMC 131453Z AUTO 00000KT 10SM SCT090 M12/M14 A2934 RMK AO2 SLP946 T11171139 51007 TSNO $
PAMC 131400Z AUTO 00000KT 10SM FEW014 SCT019 OVC080 M12/M13 A2934 RMK AO2 T11171128 TSNO $
PAMC 131353Z AUTO 05003KT 10SM SCT014 BKN019 OVC075 M12/M13 A2934 RMK AO2 SLP944 T11171128 TSNO $
PAMC 131332Z AUTO 00000KT 10SM OVC014 M12/M13 A2934 RMK AO2 T11171128 TSNO $
PAMC 131253Z AUTO 00000KT 10SM BKN015 OVC100 M11/M12 A2933 RMK AO2 SLP942 T11061122 TSNO $
PAMC 131153Z AUTO 00000KT 10SM OVC018 M11/M12 A2932 RMK AO2 SLP939 I6000 T11061122 11100 21139 53005 TSNO $
PAMC 131053Z AUTO 32003KT 10SM OVC016 M11/M12 A2931 RMK AO2 SLP935 T11111122 TSNO $
PAMC 130953Z AUTO 00000KT 10SM OVC016 M11/M13 A2931 RMK AO2 SLP934 T11111128 TSNO $
PAMC 130853Z AUTO 32003KT 10SM OVC015 M11/M12 A2930 RMK AO2 SLP933 I3000 T11061117 411001183 58000 TSNO $
PAMC 130753Z AUTO 28003KT 10SM OVC016 M12/M13 A2930 RMK AO2 SLP933 I1000 T11171128 TSNO $
PAMC 130653Z AUTO 00000KT 10SM OVC017 M12/M13 A2931 RMK AO2 SLP935 T11221133 TSNO $
PAMC 130553Z AUTO 00000KT 10SM OVC019 M14/M15 A2930 RMK AO2 SLP934 I6002 T11391150 11139 21167 58007 TSNO $
PAMC 130453Z AUTO 00000KT 10SM OVC019 M14/M16 A2932 RMK AO2 SLP938 I1001 T11441161 TSNO $
PAMC 130353Z AUTO 00000KT 10SM OVC019 M16/M17 A2932 RMK AO2 SLP939 I1000 T11561167 TSNO $
PAMC 130253Z AUTO 00000KT 10SM OVC018 M16/M17 A2933 RMK AO2 SLP942 I1000 I3001 T11561172 56007 TSNO $
PAMC 130238Z AUTO 05003KT 10SM BKN018 M16/M18 A2932 RMK AO2 I1000 T11611178 TSNO $
PAMC 130153Z AUTO 00000KT 10SM CLR M16/M17 A2933 RMK AO2 SLP943 T11561172 TSNO $